KPF72K LOWW-LOWS
Flight info
| Callsign | KPF72K |
|---|---|
| Flight time | 0h 31m |
| Altitude | 16000 |
| Route | SOVIL DCT SITNI DCT BAGSI DCT MATIG MATIG2R |
| Aircraft | CL60/M-SBDE1E2E3FGHIJ1J4J5J7M3RWXYZ/LB1V1D1 |
Departure
| Time | 2026-05-07 06:49 |
|---|---|
| Airport | Vienna International Airport (LOWW) |
Arrival
| Time | 2026-05-07 07:20 |
|---|---|
| Airport | Salzburg Airport (LOWS) |
| Time | Latitude | Longitude | Altitude | Speed | Heading |
|---|---|---|---|---|---|
| 2026-05-07 06:29 | 48.12764 | 16.53766 | 607 ft | 0 kts | 297° |
| 2026-05-07 06:44 | 48.12762 | 16.53706 | 607 ft | 13 kts | 221° |
| 2026-05-07 06:44 | 48.12663 | 16.53648 | 607 ft | 17 kts | 180° |
| 2026-05-07 06:44 | 48.12535 | 16.53642 | 607 ft | 17 kts | 197° |
| 2026-05-07 06:44 | 48.12434 | 16.53626 | 607 ft | 14 kts | 190° |
| 2026-05-07 06:45 | 48.12369 | 16.53709 | 607 ft | 13 kts | 116° |
| 2026-05-07 06:45 | 48.12316 | 16.53874 | 607 ft | 19 kts | 117° |
| 2026-05-07 06:45 | 48.12255 | 16.54059 | 607 ft | 20 kts | 116° |
| 2026-05-07 06:45 | 48.12192 | 16.54255 | 607 ft | 21 kts | 117° |
| 2026-05-07 06:46 | 48.12123 | 16.54468 | 607 ft | 24 kts | 116° |
| 2026-05-07 06:46 | 48.12045 | 16.54712 | 607 ft | 27 kts | 116° |
| 2026-05-07 06:46 | 48.11959 | 16.54971 | 607 ft | 23 kts | 116° |
| 2026-05-07 06:46 | 48.11886 | 16.55195 | 607 ft | 24 kts | 115° |
| 2026-05-07 06:47 | 48.11808 | 16.55435 | 607 ft | 25 kts | 117° |
| 2026-05-07 06:47 | 48.11727 | 16.55681 | 607 ft | 27 kts | 116° |
| 2026-05-07 06:47 | 48.11642 | 16.55944 | 607 ft | 28 kts | 120° |
| 2026-05-07 06:47 | 48.11588 | 16.56105 | 607 ft | 12 kts | 125° |
| 2026-05-07 06:48 | 48.11514 | 16.56094 | 607 ft | 13 kts | 244° |
| 2026-05-07 06:48 | 48.11502 | 16.55951 | 607 ft | 14 kts | 266° |
| 2026-05-07 06:48 | 48.11477 | 16.55815 | 607 ft | 10 kts | 283° |
| 2026-05-07 06:48 | 48.11570 | 16.55521 | 607 ft | 77 kts | 295° |
| 2026-05-07 06:49 | 48.11959 | 16.54330 | 753 ft | 161 kts | 296° |
| 2026-05-07 06:49 | 48.12382 | 16.52722 | 1712 ft | 182 kts | 280° |
| 2026-05-07 06:49 | 48.12194 | 16.50871 | 2922 ft | 193 kts | 250° |
| 2026-05-07 06:49 | 48.11514 | 16.49269 | 4350 ft | 191 kts | 237° |
| 2026-05-07 06:50 | 48.10671 | 16.47522 | 5077 ft | 230 kts | 236° |
| 2026-05-07 06:50 | 48.09681 | 16.45467 | 6067 ft | 258 kts | 234° |
| 2026-05-07 06:50 | 48.08605 | 16.43279 | 7418 ft | 270 kts | 233° |
| 2026-05-07 06:50 | 48.07496 | 16.41040 | 8909 ft | 276 kts | 232° |
| 2026-05-07 06:51 | 48.06365 | 16.38755 | 10512 ft | 278 kts | 232° |
| 2026-05-07 06:51 | 48.05168 | 16.36346 | 11284 ft | 309 kts | 233° |
| 2026-05-07 06:51 | 48.03927 | 16.33557 | 12182 ft | 332 kts | 242° |
| 2026-05-07 06:51 | 48.03328 | 16.30235 | 13356 ft | 344 kts | 264° |
| 2026-05-07 06:52 | 48.03348 | 16.26664 | 14576 ft | 350 kts | 269° |
| 2026-05-07 06:52 | 48.03421 | 16.22958 | 15430 ft | 361 kts | 268° |
| 2026-05-07 06:52 | 48.03489 | 16.19197 | 15824 ft | 363 kts | 268° |
| 2026-05-07 06:52 | 48.03556 | 16.15435 | 15953 ft | 362 kts | 269° |
| 2026-05-07 06:53 | 48.03622 | 16.11691 | 15960 ft | 360 kts | 269° |
| 2026-05-07 06:53 | 48.03686 | 16.07986 | 15950 ft | 358 kts | 269° |
| 2026-05-07 06:53 | 48.03750 | 16.04223 | 15955 ft | 358 kts | 269° |
| 2026-05-07 06:53 | 48.03810 | 16.00532 | 15946 ft | 357 kts | 269° |
| 2026-05-07 06:54 | 48.03870 | 15.96809 | 15947 ft | 357 kts | 268° |
| 2026-05-07 06:54 | 48.03928 | 15.93087 | 15949 ft | 357 kts | 268° |
| 2026-05-07 06:54 | 48.03984 | 15.89374 | 15951 ft | 357 kts | 268° |
| 2026-05-07 06:54 | 48.04039 | 15.85680 | 15949 ft | 356 kts | 268° |
| 2026-05-07 06:55 | 48.04093 | 15.81953 | 15954 ft | 357 kts | 268° |
| 2026-05-07 06:55 | 48.04145 | 15.78270 | 15953 ft | 357 kts | 268° |
| 2026-05-07 06:55 | 48.04196 | 15.74538 | 15957 ft | 357 kts | 268° |
| 2026-05-07 06:55 | 48.04246 | 15.70808 | 15950 ft | 358 kts | 268° |
| 2026-05-07 06:56 | 48.04295 | 15.67117 | 15951 ft | 358 kts | 268° |
| 2026-05-07 06:56 | 48.04343 | 15.63401 | 15960 ft | 357 kts | 268° |
| 2026-05-07 06:56 | 48.04389 | 15.59691 | 15957 ft | 358 kts | 268° |
| 2026-05-07 06:56 | 48.04434 | 15.56009 | 15951 ft | 358 kts | 269° |
| 2026-05-07 06:57 | 48.04477 | 15.52303 | 15956 ft | 359 kts | 269° |
| 2026-05-07 06:57 | 48.04520 | 15.48541 | 15955 ft | 359 kts | 269° |
| 2026-05-07 06:57 | 48.04562 | 15.44839 | 15959 ft | 358 kts | 269° |
| 2026-05-07 06:57 | 48.04602 | 15.41113 | 15957 ft | 358 kts | 269° |
| 2026-05-07 06:58 | 48.04643 | 15.37372 | 15957 ft | 358 kts | 269° |
| 2026-05-07 06:58 | 48.04701 | 15.33673 | 15962 ft | 358 kts | 269° |
| 2026-05-07 06:58 | 48.04763 | 15.29922 | 15960 ft | 358 kts | 268° |
| 2026-05-07 06:58 | 48.04824 | 15.26169 | 15958 ft | 358 kts | 269° |
| 2026-05-07 06:59 | 48.04882 | 15.22467 | 15959 ft | 358 kts | 269° |
| 2026-05-07 06:59 | 48.04939 | 15.18730 | 15959 ft | 359 kts | 269° |
| 2026-05-07 06:59 | 48.04996 | 15.15002 | 15961 ft | 359 kts | 268° |
| 2026-05-07 06:59 | 48.05051 | 15.11275 | 15968 ft | 358 kts | 268° |
| 2026-05-07 07:00 | 48.05104 | 15.07546 | 15962 ft | 359 kts | 268° |
| 2026-05-07 07:00 | 48.05157 | 15.03842 | 15967 ft | 359 kts | 268° |
| 2026-05-07 07:00 | 48.05208 | 15.00092 | 15963 ft | 359 kts | 268° |
| 2026-05-07 07:00 | 48.05258 | 14.96359 | 15977 ft | 359 kts | 268° |
| 2026-05-07 07:01 | 48.05308 | 14.92585 | 15975 ft | 359 kts | 268° |
| 2026-05-07 07:01 | 48.05355 | 14.88865 | 15973 ft | 359 kts | 269° |
| 2026-05-07 07:01 | 48.05401 | 14.85160 | 15971 ft | 359 kts | 269° |
| 2026-05-07 07:01 | 48.05441 | 14.81443 | 15973 ft | 358 kts | 268° |
| 2026-05-07 07:02 | 48.05474 | 14.77661 | 15970 ft | 359 kts | 268° |
| 2026-05-07 07:02 | 48.05504 | 14.73969 | 15975 ft | 359 kts | 268° |
| 2026-05-07 07:02 | 48.05534 | 14.70222 | 15969 ft | 359 kts | 268° |
| 2026-05-07 07:02 | 48.05562 | 14.66479 | 15975 ft | 359 kts | 268° |
| 2026-05-07 07:03 | 48.05589 | 14.62757 | 15969 ft | 359 kts | 268° |
| 2026-05-07 07:03 | 48.05615 | 14.58989 | 15978 ft | 359 kts | 268° |
| 2026-05-07 07:03 | 48.05639 | 14.55298 | 15975 ft | 359 kts | 269° |
| 2026-05-07 07:03 | 48.05663 | 14.51540 | 15972 ft | 360 kts | 269° |
| 2026-05-07 07:04 | 48.05685 | 14.47781 | 15968 ft | 359 kts | 269° |
| 2026-05-07 07:04 | 48.05706 | 14.44041 | 15974 ft | 360 kts | 268° |
| 2026-05-07 07:04 | 48.05726 | 14.40323 | 15979 ft | 359 kts | 269° |
| 2026-05-07 07:04 | 48.05745 | 14.36585 | 15974 ft | 360 kts | 269° |
| 2026-05-07 07:05 | 48.05763 | 14.32848 | 15977 ft | 360 kts | 268° |
| 2026-05-07 07:05 | 48.05779 | 14.29084 | 15972 ft | 360 kts | 268° |
| 2026-05-07 07:05 | 48.05794 | 14.25368 | 15979 ft | 360 kts | 268° |
| 2026-05-07 07:05 | 48.05808 | 14.21627 | 15977 ft | 360 kts | 268° |
| 2026-05-07 07:06 | 48.05821 | 14.17851 | 15971 ft | 359 kts | 268° |
| 2026-05-07 07:06 | 48.05833 | 14.14118 | 15985 ft | 360 kts | 268° |
| 2026-05-07 07:06 | 48.05844 | 14.10375 | 15976 ft | 359 kts | 268° |
| 2026-05-07 07:06 | 48.05853 | 14.06633 | 15970 ft | 359 kts | 268° |
| 2026-05-07 07:07 | 48.05861 | 14.02891 | 15986 ft | 360 kts | 268° |
| 2026-05-07 07:07 | 48.05868 | 13.99171 | 15973 ft | 360 kts | 268° |
| 2026-05-07 07:07 | 48.05873 | 13.95412 | 15972 ft | 360 kts | 268° |
| 2026-05-07 07:07 | 48.05878 | 13.91720 | 15974 ft | 360 kts | 268° |
| 2026-05-07 07:08 | 48.05881 | 13.87945 | 15975 ft | 360 kts | 268° |
| 2026-05-07 07:08 | 48.05883 | 13.84247 | 15977 ft | 359 kts | 268° |
| 2026-05-07 07:08 | 48.05884 | 13.80514 | 15973 ft | 359 kts | 268° |
| 2026-05-07 07:08 | 48.05883 | 13.76760 | 15805 ft | 362 kts | 268° |
| 2026-05-07 07:09 | 48.05882 | 13.73024 | 15407 ft | 360 kts | 269° |
| 2026-05-07 07:09 | 48.05879 | 13.69270 | 14944 ft | 356 kts | 269° |
| 2026-05-07 07:09 | 48.05875 | 13.65616 | 14480 ft | 354 kts | 269° |
| 2026-05-07 07:09 | 48.05870 | 13.61939 | 14014 ft | 350 kts | 269° |
| 2026-05-07 07:10 | 48.05865 | 13.58332 | 13559 ft | 343 kts | 269° |
| 2026-05-07 07:10 | 48.05848 | 13.54840 | 13108 ft | 334 kts | 267° |
| 2026-05-07 07:10 | 48.05643 | 13.51418 | 12664 ft | 326 kts | 262° |
| 2026-05-07 07:10 | 48.05363 | 13.48123 | 12259 ft | 318 kts | 262° |
| 2026-05-07 07:11 | 48.05088 | 13.44846 | 11798 ft | 312 kts | 262° |
| 2026-05-07 07:11 | 48.04823 | 13.41692 | 11407 ft | 304 kts | 262° |
| 2026-05-07 07:11 | 48.04559 | 13.38574 | 11010 ft | 298 kts | 262° |
| 2026-05-07 07:11 | 48.04304 | 13.35561 | 10619 ft | 292 kts | 261° |
| 2026-05-07 07:12 | 48.04049 | 13.32561 | 10247 ft | 286 kts | 261° |
| 2026-05-07 07:12 | 48.03796 | 13.29596 | 9851 ft | 282 kts | 261° |
| 2026-05-07 07:12 | 48.03551 | 13.26722 | 9480 ft | 278 kts | 261° |
| 2026-05-07 07:12 | 48.03306 | 13.23877 | 9116 ft | 275 kts | 261° |
| 2026-05-07 07:13 | 48.03062 | 13.21041 | 8752 ft | 275 kts | 261° |
| 2026-05-07 07:13 | 48.02816 | 13.18195 | 8381 ft | 274 kts | 261° |
| 2026-05-07 07:13 | 48.02573 | 13.15381 | 8031 ft | 271 kts | 262° |
| 2026-05-07 07:13 | 48.02334 | 13.12614 | 7667 ft | 268 kts | 262° |
| 2026-05-07 07:14 | 48.02090 | 13.09857 | 7316 ft | 266 kts | 262° |
| 2026-05-07 07:14 | 48.01849 | 13.07143 | 6970 ft | 264 kts | 263° |
| 2026-05-07 07:14 | 48.01609 | 13.04438 | 6615 ft | 263 kts | 263° |
| 2026-05-07 07:14 | 48.01370 | 13.01744 | 6272 ft | 260 kts | 263° |
| 2026-05-07 07:15 | 48.01130 | 12.99060 | 5925 ft | 259 kts | 263° |
| 2026-05-07 07:15 | 48.00892 | 12.96398 | 5582 ft | 255 kts | 263° |
| 2026-05-07 07:15 | 48.00574 | 12.93842 | 5237 ft | 250 kts | 252° |
| 2026-05-07 07:15 | 47.99729 | 12.91616 | 4827 ft | 250 kts | 231° |
| 2026-05-07 07:16 | 47.98354 | 12.90045 | 4439 ft | 251 kts | 209° |
| 2026-05-07 07:16 | 47.96635 | 12.89561 | 4081 ft | 254 kts | 175° |
| 2026-05-07 07:16 | 47.95010 | 12.90472 | 3995 ft | 243 kts | 159° |
| 2026-05-07 07:16 | 47.93533 | 12.91392 | 4022 ft | 222 kts | 162° |
| 2026-05-07 07:17 | 47.92181 | 12.92219 | 3925 ft | 203 kts | 161° |
| 2026-05-07 07:17 | 47.90905 | 12.93026 | 3664 ft | 193 kts | 161° |
| 2026-05-07 07:17 | 47.89692 | 12.93798 | 3433 ft | 184 kts | 161° |
| 2026-05-07 07:17 | 47.88537 | 12.94534 | 3187 ft | 177 kts | 162° |
| 2026-05-07 07:18 | 47.87443 | 12.95231 | 2934 ft | 168 kts | 161° |
| 2026-05-07 07:18 | 47.86373 | 12.95913 | 2733 ft | 161 kts | 160° |
| 2026-05-07 07:18 | 47.85415 | 12.96527 | 2569 ft | 142 kts | 160° |
| 2026-05-07 07:18 | 47.84501 | 12.97108 | 2353 ft | 140 kts | 159° |
| 2026-05-07 07:19 | 47.83622 | 12.97664 | 2162 ft | 137 kts | 159° |
| 2026-05-07 07:19 | 47.82748 | 12.98226 | 1984 ft | 135 kts | 156° |
| 2026-05-07 07:19 | 47.81878 | 12.98786 | 1807 ft | 135 kts | 157° |
| 2026-05-07 07:19 | 47.81018 | 12.99328 | 1616 ft | 134 kts | 157° |
| 2026-05-07 07:20 | 47.80183 | 12.99852 | 1447 ft | 128 kts | 157° |
| 2026-05-07 07:20 | 47.79448 | 13.00316 | 1419 ft | 82 kts | 157° |
| 2026-05-07 07:20 | 47.79185 | 13.00487 | 1419 ft | 24 kts | 158° |
| 2026-05-07 07:20 | 47.79114 | 13.00450 | 1419 ft | 13 kts | 268° |
| 2026-05-07 07:21 | 47.79121 | 13.00341 | 1419 ft | 9 kts | 277° |
| 2026-05-07 07:21 | 47.79145 | 13.00246 | 1419 ft | 12 kts | 324° |
| 2026-05-07 07:21 | 47.79238 | 13.00187 | 1419 ft | 15 kts | 334° |
| 2026-05-07 07:21 | 47.79343 | 13.00118 | 1419 ft | 13 kts | 337° |
| 2026-05-07 07:22 | 47.79429 | 13.00063 | 1419 ft | 13 kts | 336° |
| 2026-05-07 07:22 | 47.79512 | 13.00012 | 1418 ft | 13 kts | 338° |
| 2026-05-07 07:22 | 47.79562 | 12.99959 | 1418 ft | 7 kts | 270° |
| 2026-05-07 07:22 | 47.79550 | 12.99882 | 1419 ft | 6 kts | 291° |
| 2026-05-07 07:23 | 47.79590 | 12.99874 | 1418 ft | 2 kts | 15° |
| 2026-05-07 07:23 | 47.79591 | 12.99874 | 1419 ft | 0 kts | 15° |